sensor_id;sensor_type;location;lat;lon;timestamp;P1;durP1;ratioP1;P2;durP2;ratioP2
26157;SDS011;67284;44.782;10.282;2023-07-13T00:04:04;10.68;;;4.32;;
26157;SDS011;67284;44.782;10.282;2023-07-13T00:08:56;12.25;;;4.13;;
26157;SDS011;67284;44.782;10.282;2023-07-13T00:13:48;7.95;;;3.15;;
26157;SDS011;67284;44.782;10.282;2023-07-13T00:18:40;11.35;;;3.38;;
26157;SDS011;67284;44.782;10.282;2023-07-13T00:23:33;7.90;;;2.75;;
26157;SDS011;67284;44.782;10.282;2023-07-13T00:33:21;6.82;;;2.60;;
26157;SDS011;67284;44.782;10.282;2023-07-13T00:38:14;7.13;;;2.38;;
26157;SDS011;67284;44.782;10.282;2023-07-13T00:43:13;4.35;;;1.92;;
26157;SDS011;67284;44.782;10.282;2023-07-13T00:48:10;8.43;;;2.42;;
26157;SDS011;67284;44.782;10.282;2023-07-13T00:53:04;3.97;;;2.20;;
26157;SDS011;67284;44.782;10.282;2023-07-13T00:57:56;6.00;;;2.65;;
26157;SDS011;67284;44.782;10.282;2023-07-13T01:02:48;7.07;;;2.80;;
26157;SDS011;67284;44.782;10.282;2023-07-13T01:07:41;8.10;;;1.83;;
26157;SDS011;67284;44.782;10.282;2023-07-13T01:12:35;3.42;;;2.13;;
26157;SDS011;67284;44.782;10.282;2023-07-13T01:17:28;4.03;;;2.13;;
26157;SDS011;67284;44.782;10.282;2023-07-13T01:22:20;4.80;;;1.75;;
26157;SDS011;67284;44.782;10.282;2023-07-13T01:27:22;11.32;;;3.38;;
26157;SDS011;67284;44.782;10.282;2023-07-13T01:32:17;8.32;;;2.75;;
26157;SDS011;67284;44.782;10.282;2023-07-13T01:37:14;3.35;;;2.42;;
26157;SDS011;67284;44.782;10.282;2023-07-13T01:42:06;3.20;;;2.10;;
26157;SDS011;67284;44.782;10.282;2023-07-13T01:46:58;4.60;;;2.08;;
26157;SDS011;67284;44.782;10.282;2023-07-13T01:51:50;4.75;;;2.10;;
26157;SDS011;67284;44.782;10.282;2023-07-13T01:56:42;6.40;;;2.97;;
26157;SDS011;67284;44.782;10.282;2023-07-13T02:01:34;5.05;;;2.30;;
26157;SDS011;67284;44.782;10.282;2023-07-13T02:06:26;4.30;;;2.05;;
26157;SDS011;67284;44.782;10.282;2023-07-13T02:11:18;12.02;;;2.75;;
26157;SDS011;67284;44.782;10.282;2023-07-13T02:16:10;5.35;;;1.88;;
26157;SDS011;67284;44.782;10.282;2023-07-13T02:21:03;8.15;;;1.98;;
26157;SDS011;67284;44.782;10.282;2023-07-13T02:25:58;7.00;;;2.72;;
26157;SDS011;67284;44.782;10.282;2023-07-13T02:30:52;5.30;;;2.03;;
26157;SDS011;67284;44.782;10.282;2023-07-13T02:35:43;5.22;;;2.45;;
26157;SDS011;67284;44.782;10.282;2023-07-13T02:40:35;5.88;;;2.60;;
26157;SDS011;67284;44.782;10.282;2023-07-13T02:45:28;3.28;;;2.92;;
26157;SDS011;67284;44.782;10.282;2023-07-13T02:50:20;7.00;;;2.20;;
26157;SDS011;67284;44.782;10.282;2023-07-13T02:55:11;5.72;;;2.30;;
26157;SDS011;67284;44.782;10.282;2023-07-13T03:00:05;5.43;;;2.47;;
26157;SDS011;67284;44.782;10.282;2023-07-13T03:04:58;7.93;;;2.38;;
26157;SDS011;67284;44.782;10.282;2023-07-13T03:09:53;3.15;;;2.20;;
26157;SDS011;67284;44.782;10.282;2023-07-13T03:14:56;3.65;;;2.28;;
26157;SDS011;67284;44.782;10.282;2023-07-13T03:19:49;5.90;;;2.60;;
26157;SDS011;67284;44.782;10.282;2023-07-13T03:24:42;8.63;;;2.42;;
26157;SDS011;67284;44.782;10.282;2023-07-13T03:29:34;7.72;;;3.17;;
26157;SDS011;67284;44.782;10.282;2023-07-13T03:34:26;6.85;;;2.90;;
26157;SDS011;67284;44.782;10.282;2023-07-13T03:39:18;7.35;;;3.03;;
26157;SDS011;67284;44.782;10.282;2023-07-13T03:44:15;6.32;;;2.55;;
26157;SDS011;67284;44.782;10.282;2023-07-13T03:54:03;6.78;;;2.55;;
26157;SDS011;67284;44.782;10.282;2023-07-13T03:58:56;5.80;;;2.47;;
26157;SDS011;67284;44.782;10.282;2023-07-13T04:03:48;3.50;;;2.28;;
26157;SDS011;67284;44.782;10.282;2023-07-13T04:08:40;6.00;;;2.60;;
26157;SDS011;67284;44.782;10.282;2023-07-13T04:13:33;3.92;;;2.35;;
26157;SDS011;67284;44.782;10.282;2023-07-13T04:18:25;7.47;;;2.55;;
26157;SDS011;67284;44.782;10.282;2023-07-13T04:23:17;11.13;;;3.10;;
26157;SDS011;67284;44.782;10.282;2023-07-13T04:28:09;4.28;;;2.60;;
26157;SDS011;67284;44.782;10.282;2023-07-13T04:33:01;5.40;;;2.28;;
26157;SDS011;67284;44.782;10.282;2023-07-13T04:37:53;9.65;;;3.03;;
26157;SDS011;67284;44.782;10.282;2023-07-13T04:42:45;6.75;;;2.78;;
26157;SDS011;67284;44.782;10.282;2023-07-13T04:47:38;4.97;;;2.40;;
26157;SDS011;67284;44.782;10.282;2023-07-13T04:52:30;5.82;;;2.83;;
26157;SDS011;67284;44.782;10.282;2023-07-13T04:57:21;8.70;;;2.85;;
26157;SDS011;67284;44.782;10.282;2023-07-13T05:02:13;7.22;;;2.70;;
26157;SDS011;67284;44.782;10.282;2023-07-13T05:07:05;5.03;;;2.67;;
26157;SDS011;67284;44.782;10.282;2023-07-13T05:11:58;5.93;;;2.67;;
26157;SDS011;67284;44.782;10.282;2023-07-13T05:16:49;6.05;;;2.88;;
26157;SDS011;67284;44.782;10.282;2023-07-13T05:21:41;6.22;;;3.50;;
26157;SDS011;67284;44.782;10.282;2023-07-13T05:26:33;5.78;;;3.08;;
26157;SDS011;67284;44.782;10.282;2023-07-13T05:31:25;7.60;;;3.25;;
26157;SDS011;67284;44.782;10.282;2023-07-13T05:36:17;4.72;;;2.40;;
26157;SDS011;67284;44.782;10.282;2023-07-13T05:41:09;4.45;;;2.72;;
26157;SDS011;67284;44.782;10.282;2023-07-13T05:46:01;5.40;;;2.58;;
26157;SDS011;67284;44.782;10.282;2023-07-13T05:50:53;6.28;;;3.38;;
26157;SDS011;67284;44.782;10.282;2023-07-13T05:55:45;8.07;;;2.88;;
26157;SDS011;67284;44.782;10.282;2023-07-13T06:00:39;7.70;;;2.45;;
26157;SDS011;67284;44.782;10.282;2023-07-13T06:05:32;4.95;;;2.88;;
26157;SDS011;67284;44.782;10.282;2023-07-13T06:10:25;4.05;;;2.50;;
26157;SDS011;67284;44.782;10.282;2023-07-13T06:15:17;9.40;;;2.03;;
26157;SDS011;67284;44.782;10.282;2023-07-13T06:20:09;4.30;;;2.45;;
26157;SDS011;67284;44.782;10.282;2023-07-13T06:25:02;6.88;;;3.72;;
26157;SDS011;67284;44.782;10.282;2023-07-13T06:29:54;6.68;;;2.67;;
26157;SDS011;67284;44.782;10.282;2023-07-13T06:34:46;8.85;;;2.90;;
26157;SDS011;67284;44.782;10.282;2023-07-13T06:39:38;5.18;;;2.53;;
26157;SDS011;67284;44.782;10.282;2023-07-13T06:44:30;5.50;;;2.50;;
26157;SDS011;67284;44.782;10.282;2023-07-13T06:49:22;7.78;;;3.03;;
26157;SDS011;67284;44.782;10.282;2023-07-13T06:54:14;7.80;;;2.60;;
26157;SDS011;67284;44.782;10.282;2023-07-13T06:59:06;6.50;;;2.38;;
26157;SDS011;67284;44.782;10.282;2023-07-13T07:03:57;7.15;;;2.70;;
26157;SDS011;67284;44.782;10.282;2023-07-13T07:08:50;5.65;;;2.00;;
26157;SDS011;67284;44.782;10.282;2023-07-13T07:13:42;6.30;;;2.55;;
26157;SDS011;67284;44.782;10.282;2023-07-13T07:18:34;5.28;;;2.53;;
26157;SDS011;67284;44.782;10.282;2023-07-13T07:23:26;9.23;;;3.58;;
26157;SDS011;67284;44.782;10.282;2023-07-13T07:28:18;7.65;;;3.15;;
26157;SDS011;67284;44.782;10.282;2023-07-13T07:33:13;6.40;;;3.38;;
26157;SDS011;67284;44.782;10.282;2023-07-13T07:38:06;6.55;;;3.30;;
26157;SDS011;67284;44.782;10.282;2023-07-13T07:43:00;6.88;;;2.80;;
26157;SDS011;67284;44.782;10.282;2023-07-13T07:47:52;9.38;;;4.05;;
26157;SDS011;67284;44.782;10.282;2023-07-13T07:52:46;11.23;;;4.05;;
26157;SDS011;67284;44.782;10.282;2023-07-13T07:57:38;7.78;;;4.43;;
26157;SDS011;67284;44.782;10.282;2023-07-13T08:02:33;10.68;;;4.53;;
26157;SDS011;67284;44.782;10.282;2023-07-13T08:07:28;7.40;;;4.13;;
26157;SDS011;67284;44.782;10.282;2023-07-13T08:12:22;8.55;;;4.20;;
26157;SDS011;67284;44.782;10.282;2023-07-13T08:17:17;7.72;;;4.00;;
26157;SDS011;67284;44.782;10.282;2023-07-13T08:22:09;10.18;;;3.78;;
26157;SDS011;67284;44.782;10.282;2023-07-13T08:27:03;7.50;;;4.00;;
26157;SDS011;67284;44.782;10.282;2023-07-13T08:31:57;10.68;;;4.00;;
26157;SDS011;67284;44.782;10.282;2023-07-13T08:36:49;8.50;;;3.90;;
26157;SDS011;67284;44.782;10.282;2023-07-13T08:41:41;10.05;;;3.85;;
26157;SDS011;67284;44.782;10.282;2023-07-13T08:46:35;11.95;;;4.30;;
26157;SDS011;67284;44.782;10.282;2023-07-13T08:51:39;10.77;;;4.90;;
26157;SDS011;67284;44.782;10.282;2023-07-13T08:56:35;12.77;;;4.80;;
26157;SDS011;67284;44.782;10.282;2023-07-13T09:01:29;12.20;;;5.10;;
26157;SDS011;67284;44.782;10.282;2023-07-13T09:06:27;12.13;;;4.80;;
26157;SDS011;67284;44.782;10.282;2023-07-13T09:11:42;10.25;;;5.07;;
26157;SDS011;67284;44.782;10.282;2023-07-13T09:16:40;10.13;;;5.47;;
26157;SDS011;67284;44.782;10.282;2023-07-13T09:21:34;9.82;;;4.80;;
26157;SDS011;67284;44.782;10.282;2023-07-13T09:26:30;8.75;;;4.15;;
26157;SDS011;67284;44.782;10.282;2023-07-13T09:31:34;12.93;;;4.88;;
26157;SDS011;67284;44.782;10.282;2023-07-13T09:36:32;12.77;;;4.65;;
26157;SDS011;67284;44.782;10.282;2023-07-13T09:41:33;8.40;;;4.28;;
26157;SDS011;67284;44.782;10.282;2023-07-13T09:46:32;11.73;;;3.78;;
26157;SDS011;67284;44.782;10.282;2023-07-13T09:51:24;5.97;;;3.30;;
26157;SDS011;67284;44.782;10.282;2023-07-13T09:56:20;8.63;;;3.28;;
26157;SDS011;67284;44.782;10.282;2023-07-13T10:01:14;5.43;;;3.00;;
26157;SDS011;67284;44.782;10.282;2023-07-13T10:06:11;7.60;;;4.03;;
26157;SDS011;67284;44.782;10.282;2023-07-13T10:11:14;8.05;;;3.20;;
26157;SDS011;67284;44.782;10.282;2023-07-13T10:16:06;8.48;;;3.25;;
26157;SDS011;67284;44.782;10.282;2023-07-13T10:21:10;9.05;;;3.15;;
26157;SDS011;67284;44.782;10.282;2023-07-13T10:26:15;6.40;;;2.95;;
26157;SDS011;67284;44.782;10.282;2023-07-13T10:31:12;7.88;;;3.10;;
26157;SDS011;67284;44.782;10.282;2023-07-13T10:41:14;7.07;;;3.70;;
26157;SDS011;67284;44.782;10.282;2023-07-13T10:46:10;6.28;;;3.70;;
26157;SDS011;67284;44.782;10.282;2023-07-13T10:51:06;6.93;;;4.80;;
26157;SDS011;67284;44.782;10.282;2023-07-13T10:56:00;4.65;;;3.35;;
26157;SDS011;67284;44.782;10.282;2023-07-13T11:11:38;6.75;;;3.55;;
26157;SDS011;67284;44.782;10.282;2023-07-13T11:21:33;11.57;;;6.22;;
26157;SDS011;67284;44.782;10.282;2023-07-13T11:31:38;8.73;;;5.57;;
26157;SDS011;67284;44.782;10.282;2023-07-13T11:36:31;6.80;;;5.30;;
26157;SDS011;67284;44.782;10.282;2023-07-13T11:41:32;12.38;;;6.32;;
26157;SDS011;67284;44.782;10.282;2023-07-13T11:46:27;11.00;;;6.10;;
26157;SDS011;67284;44.782;10.282;2023-07-13T11:51:23;13.10;;;6.43;;
26157;SDS011;67284;44.782;10.282;2023-07-13T11:56:26;8.93;;;6.78;;
26157;SDS011;67284;44.782;10.282;2023-07-13T12:01:23;6.95;;;5.03;;
26157;SDS011;67284;44.782;10.282;2023-07-13T12:06:27;9.38;;;4.63;;
26157;SDS011;67284;44.782;10.282;2023-07-13T12:11:20;11.85;;;5.78;;
26157;SDS011;67284;44.782;10.282;2023-07-13T12:16:23;9.07;;;5.15;;
26157;SDS011;67284;44.782;10.282;2023-07-13T12:21:19;13.65;;;5.43;;
26157;SDS011;67284;44.782;10.282;2023-07-13T12:26:14;10.40;;;5.85;;
26157;SDS011;67284;44.782;10.282;2023-07-13T12:31:07;8.85;;;5.13;;
26157;SDS011;67284;44.782;10.282;2023-07-13T12:36:15;11.85;;;5.50;;
26157;SDS011;67284;44.782;10.282;2023-07-13T12:41:07;7.78;;;4.68;;
26157;SDS011;67284;44.782;10.282;2023-07-13T12:46:01;8.68;;;5.70;;
26157;SDS011;67284;44.782;10.282;2023-07-13T12:50:55;7.97;;;4.68;;
26157;SDS011;67284;44.782;10.282;2023-07-13T12:55:56;9.10;;;5.83;;
26157;SDS011;67284;44.782;10.282;2023-07-13T13:00:50;6.50;;;5.30;;
26157;SDS011;67284;44.782;10.282;2023-07-13T13:05:46;13.68;;;5.47;;
26157;SDS011;67284;44.782;10.282;2023-07-13T13:10:38;9.00;;;5.55;;
26157;SDS011;67284;44.782;10.282;2023-07-13T13:15:30;13.05;;;6.43;;
26157;SDS011;67284;44.782;10.282;2023-07-13T13:20:22;11.75;;;5.70;;
26157;SDS011;67284;44.782;10.282;2023-07-13T13:25:14;11.05;;;5.13;;
26157;SDS011;67284;44.782;10.282;2023-07-13T13:30:25;12.88;;;5.28;;
26157;SDS011;67284;44.782;10.282;2023-07-13T13:35:18;13.45;;;6.07;;
26157;SDS011;67284;44.782;10.282;2023-07-13T13:40:15;11.32;;;6.80;;
26157;SDS011;67284;44.782;10.282;2023-07-13T13:45:09;8.93;;;5.47;;
26157;SDS011;67284;44.782;10.282;2023-07-13T13:50:10;14.63;;;6.50;;
26157;SDS011;67284;44.782;10.282;2023-07-13T13:55:11;13.48;;;5.60;;
26157;SDS011;67284;44.782;10.282;2023-07-13T14:00:08;13.38;;;5.25;;
26157;SDS011;67284;44.782;10.282;2023-07-13T14:05:03;11.10;;;5.77;;
26157;SDS011;67284;44.782;10.282;2023-07-13T14:09:59;10.98;;;4.88;;
26157;SDS011;67284;44.782;10.282;2023-07-13T14:14:52;10.30;;;5.85;;
26157;SDS011;67284;44.782;10.282;2023-07-13T14:19:44;10.00;;;5.80;;
26157;SDS011;67284;44.782;10.282;2023-07-13T14:24:35;9.50;;;6.00;;
26157;SDS011;67284;44.782;10.282;2023-07-13T14:29:27;10.85;;;4.97;;
26157;SDS011;67284;44.782;10.282;2023-07-13T14:34:19;11.02;;;5.53;;
26157;SDS011;67284;44.782;10.282;2023-07-13T14:39:22;9.82;;;5.20;;
26157;SDS011;67284;44.782;10.282;2023-07-13T14:44:16;9.98;;;5.75;;
26157;SDS011;67284;44.782;10.282;2023-07-13T14:49:42;11.20;;;5.75;;
26157;SDS011;67284;44.782;10.282;2023-07-13T14:54:27;10.85;;;5.90;;
26157;SDS011;67284;44.782;10.282;2023-07-13T14:59:19;8.05;;;5.13;;
26157;SDS011;67284;44.782;10.282;2023-07-13T15:04:11;8.95;;;4.70;;
26157;SDS011;67284;44.782;10.282;2023-07-13T15:09:03;9.15;;;5.00;;
26157;SDS011;67284;44.782;10.282;2023-07-13T15:13:55;8.93;;;5.72;;
26157;SDS011;67284;44.782;10.282;2023-07-13T15:18:47;7.22;;;4.88;;
26157;SDS011;67284;44.782;10.282;2023-07-13T15:23:40;10.10;;;5.10;;
26157;SDS011;67284;44.782;10.282;2023-07-13T15:28:32;9.65;;;4.85;;
26157;SDS011;67284;44.782;10.282;2023-07-13T15:33:26;6.95;;;4.68;;
26157;SDS011;67284;44.782;10.282;2023-07-13T15:38:21;10.18;;;4.55;;
26157;SDS011;67284;44.782;10.282;2023-07-13T15:48:16;8.60;;;5.07;;
26157;SDS011;67284;44.782;10.282;2023-07-13T15:53:10;8.85;;;5.75;;
26157;SDS011;67284;44.782;10.282;2023-07-13T15:58:02;9.85;;;4.88;;
26157;SDS011;67284;44.782;10.282;2023-07-13T16:02:54;12.63;;;4.78;;
26157;SDS011;67284;44.782;10.282;2023-07-13T16:07:46;9.88;;;5.25;;
26157;SDS011;67284;44.782;10.282;2023-07-13T16:12:40;8.77;;;5.38;;
26157;SDS011;67284;44.782;10.282;2023-07-13T16:17:33;14.43;;;6.25;;
26157;SDS011;67284;44.782;10.282;2023-07-13T16:22:25;13.38;;;5.43;;
26157;SDS011;67284;44.782;10.282;2023-07-13T16:27:17;11.18;;;5.10;;
26157;SDS011;67284;44.782;10.282;2023-07-13T16:32:10;8.88;;;5.68;;
26157;SDS011;67284;44.782;10.282;2023-07-13T16:37:14;10.20;;;4.55;;
26157;SDS011;67284;44.782;10.282;2023-07-13T16:42:08;6.38;;;4.72;;
26157;SDS011;67284;44.782;10.282;2023-07-13T16:47:02;9.82;;;5.03;;
26157;SDS011;67284;44.782;10.282;2023-07-13T16:51:56;8.40;;;4.88;;
26157;SDS011;67284;44.782;10.282;2023-07-13T16:56:53;9.15;;;5.15;;
26157;SDS011;67284;44.782;10.282;2023-07-13T17:01:45;9.68;;;4.60;;
26157;SDS011;67284;44.782;10.282;2023-07-13T17:06:38;12.27;;;4.72;;
26157;SDS011;67284;44.782;10.282;2023-07-13T17:11:32;10.32;;;5.13;;
26157;SDS011;67284;44.782;10.282;2023-07-13T17:16:24;7.90;;;5.03;;
26157;SDS011;67284;44.782;10.282;2023-07-13T17:21:17;10.90;;;5.03;;
26157;SDS011;67284;44.782;10.282;2023-07-13T17:26:09;9.75;;;4.85;;
26157;SDS011;67284;44.782;10.282;2023-07-13T17:31:01;8.10;;;5.70;;
26157;SDS011;67284;44.782;10.282;2023-07-13T17:35:53;9.45;;;4.93;;
26157;SDS011;67284;44.782;10.282;2023-07-13T17:40:46;6.25;;;4.88;;
26157;SDS011;67284;44.782;10.282;2023-07-13T17:45:38;9.45;;;5.68;;
26157;SDS011;67284;44.782;10.282;2023-07-13T17:50:33;11.95;;;5.32;;
26157;SDS011;67284;44.782;10.282;2023-07-13T18:00:21;11.43;;;4.88;;
26157;SDS011;67284;44.782;10.282;2023-07-13T18:05:19;9.45;;;4.65;;
26157;SDS011;67284;44.782;10.282;2023-07-13T18:10:14;15.32;;;4.90;;
26157;SDS011;67284;44.782;10.282;2023-07-13T18:15:08;8.52;;;4.40;;
26157;SDS011;67284;44.782;10.282;2023-07-13T18:20:01;7.20;;;4.15;;
26157;SDS011;67284;44.782;10.282;2023-07-13T18:25:11;8.18;;;4.10;;
26157;SDS011;67284;44.782;10.282;2023-07-13T18:30:05;7.30;;;4.20;;
26157;SDS011;67284;44.782;10.282;2023-07-13T18:35:00;9.60;;;4.50;;
26157;SDS011;67284;44.782;10.282;2023-07-13T18:39:52;10.18;;;4.75;;
26157;SDS011;67284;44.782;10.282;2023-07-13T18:44:44;10.30;;;4.35;;
26157;SDS011;67284;44.782;10.282;2023-07-13T18:49:37;13.40;;;4.68;;
26157;SDS011;67284;44.782;10.282;2023-07-13T18:54:29;13.88;;;4.80;;
26157;SDS011;67284;44.782;10.282;2023-07-13T18:59:21;10.05;;;4.93;;
26157;SDS011;67284;44.782;10.282;2023-07-13T19:04:28;7.35;;;4.90;;
26157;SDS011;67284;44.782;10.282;2023-07-13T19:09:22;10.90;;;4.63;;
26157;SDS011;67284;44.782;10.282;2023-07-13T19:14:17;7.07;;;4.95;;
26157;SDS011;67284;44.782;10.282;2023-07-13T19:19:15;8.50;;;5.32;;
26157;SDS011;67284;44.782;10.282;2023-07-13T19:24:11;10.50;;;6.20;;
26157;SDS011;67284;44.782;10.282;2023-07-13T19:29:05;10.90;;;5.20;;
26157;SDS011;67284;44.782;10.282;2023-07-13T19:33:57;11.05;;;5.40;;
26157;SDS011;67284;44.782;10.282;2023-07-13T19:38:49;9.20;;;5.05;;
26157;SDS011;67284;44.782;10.282;2023-07-13T19:43:42;13.48;;;5.90;;
26157;SDS011;67284;44.782;10.282;2023-07-13T19:48:34;12.27;;;5.22;;
26157;SDS011;67284;44.782;10.282;2023-07-13T19:53:26;14.88;;;5.90;;
26157;SDS011;67284;44.782;10.282;2023-07-13T19:58:19;9.70;;;5.38;;
26157;SDS011;67284;44.782;10.282;2023-07-13T20:03:11;17.50;;;6.40;;
26157;SDS011;67284;44.782;10.282;2023-07-13T20:08:05;12.48;;;6.15;;
26157;SDS011;67284;44.782;10.282;2023-07-13T20:13:10;10.27;;;5.70;;
26157;SDS011;67284;44.782;10.282;2023-07-13T20:18:08;10.65;;;5.57;;
26157;SDS011;67284;44.782;10.282;2023-07-13T20:23:25;7.60;;;5.07;;
26157;SDS011;67284;44.782;10.282;2023-07-13T20:28:18;9.23;;;5.53;;
26157;SDS011;67284;44.782;10.282;2023-07-13T20:33:19;14.30;;;5.80;;
26157;SDS011;67284;44.782;10.282;2023-07-13T20:38:15;9.18;;;5.47;;
26157;SDS011;67284;44.782;10.282;2023-07-13T20:43:08;9.57;;;5.10;;
26157;SDS011;67284;44.782;10.282;2023-07-13T20:48:12;11.70;;;6.50;;
26157;SDS011;67284;44.782;10.282;2023-07-13T20:53:16;12.25;;;5.53;;
26157;SDS011;67284;44.782;10.282;2023-07-13T20:58:09;7.88;;;5.07;;
26157;SDS011;67284;44.782;10.282;2023-07-13T21:03:03;13.00;;;5.97;;
26157;SDS011;67284;44.782;10.282;2023-07-13T21:07:57;8.10;;;5.68;;
26157;SDS011;67284;44.782;10.282;2023-07-13T21:12:49;6.53;;;5.72;;
26157;SDS011;67284;44.782;10.282;2023-07-13T21:17:42;10.07;;;5.53;;
26157;SDS011;67284;44.782;10.282;2023-07-13T21:22:35;9.70;;;6.05;;
26157;SDS011;67284;44.782;10.282;2023-07-13T21:27:27;9.40;;;5.35;;
26157;SDS011;67284;44.782;10.282;2023-07-13T21:32:19;7.65;;;5.03;;
26157;SDS011;67284;44.782;10.282;2023-07-13T21:37:18;16.52;;;6.00;;
26157;SDS011;67284;44.782;10.282;2023-07-13T21:42:11;13.27;;;6.18;;
26157;SDS011;67284;44.782;10.282;2023-07-13T21:47:03;16.15;;;6.43;;
26157;SDS011;67284;44.782;10.282;2023-07-13T21:51:55;12.60;;;6.82;;
26157;SDS011;67284;44.782;10.282;2023-07-13T21:56:47;10.63;;;6.55;;
26157;SDS011;67284;44.782;10.282;2023-07-13T22:01:39;10.25;;;7.22;;
26157;SDS011;67284;44.782;10.282;2023-07-13T22:06:31;9.27;;;7.00;;
26157;SDS011;67284;44.782;10.282;2023-07-13T22:11:23;13.20;;;6.32;;
26157;SDS011;67284;44.782;10.282;2023-07-13T22:21:10;11.13;;;6.38;;
26157;SDS011;67284;44.782;10.282;2023-07-13T22:26:10;10.23;;;5.80;;
26157;SDS011;67284;44.782;10.282;2023-07-13T22:31:15;6.20;;;4.93;;
26157;SDS011;67284;44.782;10.282;2023-07-13T22:36:08;5.65;;;4.85;;
26157;SDS011;67284;44.782;10.282;2023-07-13T22:41:01;10.02;;;5.10;;
26157;SDS011;67284;44.782;10.282;2023-07-13T22:45:54;5.60;;;4.30;;
26157;SDS011;67284;44.782;10.282;2023-07-13T22:50:48;6.78;;;3.70;;
26157;SDS011;67284;44.782;10.282;2023-07-13T22:55:41;5.47;;;3.28;;
26157;SDS011;67284;44.782;10.282;2023-07-13T23:00:33;6.38;;;4.25;;
26157;SDS011;67284;44.782;10.282;2023-07-13T23:05:25;6.65;;;3.47;;
26157;SDS011;67284;44.782;10.282;2023-07-13T23:10:18;5.65;;;3.30;;
26157;SDS011;67284;44.782;10.282;2023-07-13T23:15:12;7.32;;;3.25;;
26157;SDS011;67284;44.782;10.282;2023-07-13T23:20:14;6.70;;;3.72;;
26157;SDS011;67284;44.782;10.282;2023-07-13T23:25:14;5.00;;;4.00;;
26157;SDS011;67284;44.782;10.282;2023-07-13T23:30:12;8.82;;;5.18;;
26157;SDS011;67284;44.782;10.282;2023-07-13T23:35:08;11.25;;;5.28;;
26157;SDS011;67284;44.782;10.282;2023-07-13T23:40:19;8.82;;;6.05;;
26157;SDS011;67284;44.782;10.282;2023-07-13T23:45:19;8.82;;;6.50;;
26157;SDS011;67284;44.782;10.282;2023-07-13T23:50:21;11.45;;;7.40;;
26157;SDS011;67284;44.782;10.282;2023-07-13T23:55:18;12.20;;;6.80;;
